sensor_id;sensor_type;location;lat;lon;timestamp;P1;durP1;ratioP1;P2;durP2;ratioP2
69847;SDS011;57143;55.940;37.496;2023-08-30T00:02:00;9.48;;;4.35;;
69847;SDS011;57143;55.940;37.496;2023-08-30T00:04:27;10.07;;;4.43;;
69847;SDS011;57143;55.940;37.496;2023-08-30T00:06:55;10.23;;;4.32;;
69847;SDS011;57143;55.940;37.496;2023-08-30T00:09:22;10.30;;;4.85;;
69847;SDS011;57143;55.940;37.496;2023-08-30T00:11:52;9.50;;;4.40;;
69847;SDS011;57143;55.940;37.496;2023-08-30T00:14:19;8.85;;;4.50;;
69847;SDS011;57143;55.940;37.496;2023-08-30T00:16:46;9.75;;;5.00;;
69847;SDS011;57143;55.940;37.496;2023-08-30T00:19:13;8.63;;;4.10;;
69847;SDS011;57143;55.940;37.496;2023-08-30T00:21:41;8.00;;;3.53;;
69847;SDS011;57143;55.940;37.496;2023-08-30T00:24:09;9.00;;;4.53;;
69847;SDS011;57143;55.940;37.496;2023-08-30T00:26:37;9.25;;;3.90;;
69847;SDS011;57143;55.940;37.496;2023-08-30T00:29:05;7.45;;;3.22;;
69847;SDS011;57143;55.940;37.496;2023-08-30T00:31:32;8.07;;;3.50;;
69847;SDS011;57143;55.940;37.496;2023-08-30T00:34:00;8.57;;;3.55;;
69847;SDS011;57143;55.940;37.496;2023-08-30T00:36:27;7.47;;;3.27;;
69847;SDS011;57143;55.940;37.496;2023-08-30T00:38:54;9.20;;;4.40;;
69847;SDS011;57143;55.940;37.496;2023-08-30T00:41:21;10.10;;;4.40;;
69847;SDS011;57143;55.940;37.496;2023-08-30T00:43:48;10.27;;;3.95;;
69847;SDS011;57143;55.940;37.496;2023-08-30T00:46:17;9.90;;;4.20;;
69847;SDS011;57143;55.940;37.496;2023-08-30T00:48:45;9.07;;;3.73;;
69847;SDS011;57143;55.940;37.496;2023-08-30T00:51:12;8.90;;;4.07;;
69847;SDS011;57143;55.940;37.496;2023-08-30T00:53:39;8.30;;;3.72;;
69847;SDS011;57143;55.940;37.496;2023-08-30T00:56:07;8.60;;;3.35;;
69847;SDS011;57143;55.940;37.496;2023-08-30T00:58:34;9.35;;;4.15;;
69847;SDS011;57143;55.940;37.496;2023-08-30T01:01:01;9.37;;;4.00;;
69847;SDS011;57143;55.940;37.496;2023-08-30T01:03:31;9.05;;;4.07;;
69847;SDS011;57143;55.940;37.496;2023-08-30T01:05:58;9.52;;;3.83;;
69847;SDS011;57143;55.940;37.496;2023-08-30T01:08:26;9.40;;;3.80;;
69847;SDS011;57143;55.940;37.496;2023-08-30T01:10:55;8.07;;;4.03;;
69847;SDS011;57143;55.940;37.496;2023-08-30T01:13:30;9.80;;;3.97;;
69847;SDS011;57143;55.940;37.496;2023-08-30T01:15:59;7.90;;;3.70;;
69847;SDS011;57143;55.940;37.496;2023-08-30T01:18:28;10.27;;;4.13;;
69847;SDS011;57143;55.940;37.496;2023-08-30T01:20:59;8.30;;;3.58;;
69847;SDS011;57143;55.940;37.496;2023-08-30T01:23:40;8.90;;;4.10;;
69847;SDS011;57143;55.940;37.496;2023-08-30T01:26:14;9.03;;;3.83;;
69847;SDS011;57143;55.940;37.496;2023-08-30T01:28:52;8.13;;;3.42;;
69847;SDS011;57143;55.940;37.496;2023-08-30T01:31:21;9.75;;;4.50;;
69847;SDS011;57143;55.940;37.496;2023-08-30T01:33:51;10.77;;;4.45;;
69847;SDS011;57143;55.940;37.496;2023-08-30T01:36:18;9.80;;;4.80;;
69847;SDS011;57143;55.940;37.496;2023-08-30T01:38:46;11.90;;;5.57;;
69847;SDS011;57143;55.940;37.496;2023-08-30T01:41:13;13.38;;;5.30;;
69847;SDS011;57143;55.940;37.496;2023-08-30T01:43:41;11.13;;;5.20;;
69847;SDS011;57143;55.940;37.496;2023-08-30T01:46:11;10.60;;;5.00;;
69847;SDS011;57143;55.940;37.496;2023-08-30T01:48:39;11.57;;;5.40;;
69847;SDS011;57143;55.940;37.496;2023-08-30T01:51:07;11.93;;;5.37;;
69847;SDS011;57143;55.940;37.496;2023-08-30T01:53:35;10.95;;;5.05;;
69847;SDS011;57143;55.940;37.496;2023-08-30T01:56:03;10.55;;;4.68;;
69847;SDS011;57143;55.940;37.496;2023-08-30T01:58:30;10.15;;;4.70;;
69847;SDS011;57143;55.940;37.496;2023-08-30T02:00:57;11.57;;;4.90;;
69847;SDS011;57143;55.940;37.496;2023-08-30T02:03:28;11.93;;;5.50;;
69847;SDS011;57143;55.940;37.496;2023-08-30T02:05:57;11.50;;;5.30;;
69847;SDS011;57143;55.940;37.496;2023-08-30T02:08:32;14.30;;;5.43;;
69847;SDS011;57143;55.940;37.496;2023-08-30T02:11:11;12.25;;;5.63;;
69847;SDS011;57143;55.940;37.496;2023-08-30T02:14:04;10.65;;;4.40;;
69847;SDS011;57143;55.940;37.496;2023-08-30T02:16:34;9.63;;;4.10;;
69847;SDS011;57143;55.940;37.496;2023-08-30T02:19:04;12.27;;;5.70;;
69847;SDS011;57143;55.940;37.496;2023-08-30T02:21:32;10.27;;;5.20;;
69847;SDS011;57143;55.940;37.496;2023-08-30T02:23:59;11.00;;;4.70;;
69847;SDS011;57143;55.940;37.496;2023-08-30T02:26:28;11.55;;;4.82;;
69847;SDS011;57143;55.940;37.496;2023-08-30T02:28:55;9.47;;;4.13;;
69847;SDS011;57143;55.940;37.496;2023-08-30T02:31:22;9.02;;;3.92;;
69847;SDS011;57143;55.940;37.496;2023-08-30T02:33:50;10.00;;;4.05;;
69847;SDS011;57143;55.940;37.496;2023-08-30T02:36:19;8.75;;;4.35;;
69847;SDS011;57143;55.940;37.496;2023-08-30T02:38:46;10.10;;;4.40;;
69847;SDS011;57143;55.940;37.496;2023-08-30T02:41:13;10.17;;;4.20;;
69847;SDS011;57143;55.940;37.496;2023-08-30T02:43:40;9.25;;;4.15;;
69847;SDS011;57143;55.940;37.496;2023-08-30T02:46:08;8.00;;;3.67;;
69847;SDS011;57143;55.940;37.496;2023-08-30T02:48:35;7.75;;;3.85;;
69847;SDS011;57143;55.940;37.496;2023-08-30T02:51:02;7.88;;;4.00;;
69847;SDS011;57143;55.940;37.496;2023-08-30T02:53:31;9.20;;;4.03;;
69847;SDS011;57143;55.940;37.496;2023-08-30T02:55:58;8.43;;;4.00;;
69847;SDS011;57143;55.940;37.496;2023-08-30T02:58:25;9.60;;;4.45;;
69847;SDS011;57143;55.940;37.496;2023-08-30T03:00:52;8.57;;;3.38;;
69847;SDS011;57143;55.940;37.496;2023-08-30T03:03:20;8.63;;;3.50;;
69847;SDS011;57143;55.940;37.496;2023-08-30T03:05:47;9.27;;;4.67;;
69847;SDS011;57143;55.940;37.496;2023-08-30T03:08:14;9.13;;;4.15;;
69847;SDS011;57143;55.940;37.496;2023-08-30T03:10:43;8.10;;;3.50;;
69847;SDS011;57143;55.940;37.496;2023-08-30T03:13:10;7.60;;;3.28;;
69847;SDS011;57143;55.940;37.496;2023-08-30T03:15:37;9.45;;;4.25;;
69847;SDS011;57143;55.940;37.496;2023-08-30T03:18:04;9.83;;;3.80;;
69847;SDS011;57143;55.940;37.496;2023-08-30T03:20:32;8.85;;;3.80;;
69847;SDS011;57143;55.940;37.496;2023-08-30T03:22:59;9.57;;;3.95;;
69847;SDS011;57143;55.940;37.496;2023-08-30T03:25:28;7.32;;;3.08;;
69847;SDS011;57143;55.940;37.496;2023-08-30T03:27:57;8.05;;;3.67;;
69847;SDS011;57143;55.940;37.496;2023-08-30T03:30:24;7.67;;;2.63;;
69847;SDS011;57143;55.940;37.496;2023-08-30T03:32:51;7.63;;;3.00;;
69847;SDS011;57143;55.940;37.496;2023-08-30T03:35:18;8.45;;;3.25;;
69847;SDS011;57143;55.940;37.496;2023-08-30T03:37:47;7.45;;;3.55;;
69847;SDS011;57143;55.940;37.496;2023-08-30T03:40:14;8.38;;;3.13;;
69847;SDS011;57143;55.940;37.496;2023-08-30T03:42:41;7.23;;;3.03;;
69847;SDS011;57143;55.940;37.496;2023-08-30T03:45:10;8.43;;;3.65;;
69847;SDS011;57143;55.940;37.496;2023-08-30T03:47:37;8.63;;;3.58;;
69847;SDS011;57143;55.940;37.496;2023-08-30T03:50:05;8.32;;;3.28;;
69847;SDS011;57143;55.940;37.496;2023-08-30T03:52:34;8.25;;;3.30;;
69847;SDS011;57143;55.940;37.496;2023-08-30T03:55:01;9.03;;;3.30;;
69847;SDS011;57143;55.940;37.496;2023-08-30T03:57:29;7.95;;;3.30;;
69847;SDS011;57143;55.940;37.496;2023-08-30T03:59:57;8.50;;;3.53;;
69847;SDS011;57143;55.940;37.496;2023-08-30T04:02:25;7.50;;;3.30;;
69847;SDS011;57143;55.940;37.496;2023-08-30T04:04:52;8.13;;;3.28;;
69847;SDS011;57143;55.940;37.496;2023-08-30T04:07:19;7.70;;;3.03;;
69847;SDS011;57143;55.940;37.496;2023-08-30T04:09:47;7.65;;;3.40;;
69847;SDS011;57143;55.940;37.496;2023-08-30T04:12:14;9.00;;;4.15;;
69847;SDS011;57143;55.940;37.496;2023-08-30T04:14:41;8.70;;;3.42;;
69847;SDS011;57143;55.940;37.496;2023-08-30T04:17:08;7.78;;;3.35;;
69847;SDS011;57143;55.940;37.496;2023-08-30T04:19:37;8.03;;;2.67;;
69847;SDS011;57143;55.940;37.496;2023-08-30T04:22:04;8.25;;;3.30;;
69847;SDS011;57143;55.940;37.496;2023-08-30T04:24:31;9.18;;;3.13;;
69847;SDS011;57143;55.940;37.496;2023-08-30T04:26:59;7.95;;;3.53;;
69847;SDS011;57143;55.940;37.496;2023-08-30T04:29:26;7.70;;;3.00;;
69847;SDS011;57143;55.940;37.496;2023-08-30T04:31:53;7.73;;;3.10;;
69847;SDS011;57143;55.940;37.496;2023-08-30T04:34:20;7.95;;;3.08;;
69847;SDS011;57143;55.940;37.496;2023-08-30T04:36:49;7.57;;;3.30;;
69847;SDS011;57143;55.940;37.496;2023-08-30T04:39:16;8.13;;;3.47;;
69847;SDS011;57143;55.940;37.496;2023-08-30T04:41:44;7.65;;;3.38;;
69847;SDS011;57143;55.940;37.496;2023-08-30T04:44:11;8.80;;;3.87;;
69847;SDS011;57143;55.940;37.496;2023-08-30T04:46:38;8.30;;;3.83;;
69847;SDS011;57143;55.940;37.496;2023-08-30T04:49:05;8.63;;;3.42;;
69847;SDS011;57143;55.940;37.496;2023-08-30T04:51:32;8.18;;;3.30;;
69847;SDS011;57143;55.940;37.496;2023-08-30T04:54:01;9.27;;;3.70;;
69847;SDS011;57143;55.940;37.496;2023-08-30T04:56:28;9.63;;;3.90;;
69847;SDS011;57143;55.940;37.496;2023-08-30T04:58:56;7.75;;;4.07;;
69847;SDS011;57143;55.940;37.496;2023-08-30T05:01:23;8.00;;;3.47;;
69847;SDS011;57143;55.940;37.496;2023-08-30T05:03:51;9.82;;;3.25;;
69847;SDS011;57143;55.940;37.496;2023-08-30T05:06:18;8.05;;;3.80;;
69847;SDS011;57143;55.940;37.496;2023-08-30T05:08:45;7.13;;;3.00;;
69847;SDS011;57143;55.940;37.496;2023-08-30T05:11:14;8.13;;;3.45;;
69847;SDS011;57143;55.940;37.496;2023-08-30T05:13:41;9.18;;;3.20;;
69847;SDS011;57143;55.940;37.496;2023-08-30T05:16:08;8.30;;;3.00;;
69847;SDS011;57143;55.940;37.496;2023-08-30T05:18:35;7.88;;;3.03;;
69847;SDS011;57143;55.940;37.496;2023-08-30T05:21:03;8.07;;;3.80;;
69847;SDS011;57143;55.940;37.496;2023-08-30T05:23:31;8.02;;;3.22;;
69847;SDS011;57143;55.940;37.496;2023-08-30T05:25:58;8.07;;;3.42;;
69847;SDS011;57143;55.940;37.496;2023-08-30T05:28:26;7.30;;;3.33;;
69847;SDS011;57143;55.940;37.496;2023-08-30T05:30:54;7.55;;;2.97;;
69847;SDS011;57143;55.940;37.496;2023-08-30T05:33:21;7.67;;;3.03;;
69847;SDS011;57143;55.940;37.496;2023-08-30T05:35:48;6.50;;;2.63;;
69847;SDS011;57143;55.940;37.496;2023-08-30T05:38:17;7.82;;;3.15;;
69847;SDS011;57143;55.940;37.496;2023-08-30T05:40:44;7.07;;;2.53;;
69847;SDS011;57143;55.940;37.496;2023-08-30T05:43:11;9.02;;;3.13;;
69847;SDS011;57143;55.940;37.496;2023-08-30T05:45:40;7.63;;;3.10;;
69847;SDS011;57143;55.940;37.496;2023-08-30T05:48:07;7.70;;;3.20;;
69847;SDS011;57143;55.940;37.496;2023-08-30T05:50:34;7.80;;;2.72;;
69847;SDS011;57143;55.940;37.496;2023-08-30T05:53:02;7.47;;;2.85;;
69847;SDS011;57143;55.940;37.496;2023-08-30T05:55:30;6.47;;;2.70;;
69847;SDS011;57143;55.940;37.496;2023-08-30T05:57:57;7.53;;;2.63;;
69847;SDS011;57143;55.940;37.496;2023-08-30T06:00:24;7.50;;;3.03;;
69847;SDS011;57143;55.940;37.496;2023-08-30T06:02:53;7.35;;;2.83;;
69847;SDS011;57143;55.940;37.496;2023-08-30T06:05:25;8.80;;;2.45;;
69847;SDS011;57143;55.940;37.496;2023-08-30T06:07:52;6.75;;;2.53;;
69847;SDS011;57143;55.940;37.496;2023-08-30T06:10:20;7.90;;;3.30;;
69847;SDS011;57143;55.940;37.496;2023-08-30T06:12:48;6.13;;;2.65;;
69847;SDS011;57143;55.940;37.496;2023-08-30T06:15:16;8.98;;;3.20;;
69847;SDS011;57143;55.940;37.496;2023-08-30T06:17:43;6.50;;;2.60;;
69847;SDS011;57143;55.940;37.496;2023-08-30T06:20:13;7.15;;;2.75;;
69847;SDS011;57143;55.940;37.496;2023-08-30T06:22:40;6.97;;;3.10;;
69847;SDS011;57143;55.940;37.496;2023-08-30T06:25:08;7.00;;;2.60;;
69847;SDS011;57143;55.940;37.496;2023-08-30T06:27:40;8.10;;;3.20;;
69847;SDS011;57143;55.940;37.496;2023-08-30T06:30:09;8.25;;;2.70;;
69847;SDS011;57143;55.940;37.496;2023-08-30T06:32:37;6.97;;;2.72;;
69847;SDS011;57143;55.940;37.496;2023-08-30T06:35:04;8.70;;;2.80;;
69847;SDS011;57143;55.940;37.496;2023-08-30T06:37:33;6.90;;;2.92;;
69847;SDS011;57143;55.940;37.496;2023-08-30T06:40:00;5.80;;;2.20;;
69847;SDS011;57143;55.940;37.496;2023-08-30T06:42:29;6.18;;;2.50;;
69847;SDS011;57143;55.940;37.496;2023-08-30T06:44:56;6.57;;;2.80;;
69847;SDS011;57143;55.940;37.496;2023-08-30T06:47:24;6.00;;;2.53;;
69847;SDS011;57143;55.940;37.496;2023-08-30T06:49:51;5.68;;;2.13;;
69847;SDS011;57143;55.940;37.496;2023-08-30T06:52:18;6.78;;;2.28;;
69847;SDS011;57143;55.940;37.496;2023-08-30T06:54:47;5.65;;;2.05;;
69847;SDS011;57143;55.940;37.496;2023-08-30T06:57:14;5.85;;;2.53;;
69847;SDS011;57143;55.940;37.496;2023-08-30T06:59:42;6.90;;;2.70;;
69847;SDS011;57143;55.940;37.496;2023-08-30T07:02:09;5.93;;;2.30;;
69847;SDS011;57143;55.940;37.496;2023-08-30T07:04:36;6.38;;;2.40;;
69847;SDS011;57143;55.940;37.496;2023-08-30T07:07:03;6.30;;;1.95;;
69847;SDS011;57143;55.940;37.496;2023-08-30T07:09:31;5.82;;;2.00;;
69847;SDS011;57143;55.940;37.496;2023-08-30T07:12:00;6.80;;;2.00;;
69847;SDS011;57143;55.940;37.496;2023-08-30T07:14:27;5.82;;;2.40;;
69847;SDS011;57143;55.940;37.496;2023-08-30T07:16:54;6.07;;;2.50;;
69847;SDS011;57143;55.940;37.496;2023-08-30T07:19:21;7.07;;;2.83;;
69847;SDS011;57143;55.940;37.496;2023-08-30T07:21:49;7.07;;;2.70;;
69847;SDS011;57143;55.940;37.496;2023-08-30T07:24:16;5.43;;;2.10;;
69847;SDS011;57143;55.940;37.496;2023-08-30T07:26:43;5.22;;;2.00;;
69847;SDS011;57143;55.940;37.496;2023-08-30T07:29:12;7.13;;;2.00;;
69847;SDS011;57143;55.940;37.496;2023-08-30T07:31:39;6.57;;;1.80;;
69847;SDS011;57143;55.940;37.496;2023-08-30T07:34:07;6.03;;;2.00;;
69847;SDS011;57143;55.940;37.496;2023-08-30T07:36:34;5.40;;;2.00;;
69847;SDS011;57143;55.940;37.496;2023-08-30T07:39:01;6.57;;;1.95;;
69847;SDS011;57143;55.940;37.496;2023-08-30T07:41:29;6.30;;;2.35;;
69847;SDS011;57143;55.940;37.496;2023-08-30T07:43:56;6.32;;;1.83;;
69847;SDS011;57143;55.940;37.496;2023-08-30T07:46:24;6.45;;;2.17;;
69847;SDS011;57143;55.940;37.496;2023-08-30T07:48:52;5.53;;;2.23;;
69847;SDS011;57143;55.940;37.496;2023-08-30T07:51:19;7.50;;;2.60;;
69847;SDS011;57143;55.940;37.496;2023-08-30T07:53:46;7.55;;;2.05;;
69847;SDS011;57143;55.940;37.496;2023-08-30T07:56:13;6.68;;;2.15;;
69847;SDS011;57143;55.940;37.496;2023-08-30T07:58:41;5.88;;;2.20;;
69847;SDS011;57143;55.940;37.496;2023-08-30T08:01:09;6.50;;;1.70;;
69847;SDS011;57143;55.940;37.496;2023-08-30T08:03:37;5.70;;;1.98;;
69847;SDS011;57143;55.940;37.496;2023-08-30T08:06:06;4.93;;;1.92;;
69847;SDS011;57143;55.940;37.496;2023-08-30T08:08:33;5.05;;;1.90;;
69847;SDS011;57143;55.940;37.496;2023-08-30T08:11:01;7.00;;;2.88;;
69847;SDS011;57143;55.940;37.496;2023-08-30T08:13:31;4.77;;;1.50;;
69847;SDS011;57143;55.940;37.496;2023-08-30T08:15:58;6.05;;;2.00;;
69847;SDS011;57143;55.940;37.496;2023-08-30T08:18:25;5.40;;;2.17;;
69847;SDS011;57143;55.940;37.496;2023-08-30T08:20:54;5.72;;;1.90;;
69847;SDS011;57143;55.940;37.496;2023-08-30T08:23:21;5.43;;;2.13;;
69847;SDS011;57143;55.940;37.496;2023-08-30T08:25:48;6.30;;;2.40;;
69847;SDS011;57143;55.940;37.496;2023-08-30T08:28:16;5.40;;;1.85;;
69847;SDS011;57143;55.940;37.496;2023-08-30T08:30:43;10.73;;;4.85;;
69847;SDS011;57143;55.940;37.496;2023-08-30T08:33:10;6.03;;;2.20;;
69847;SDS011;57143;55.940;37.496;2023-08-30T08:35:38;7.40;;;3.17;;
69847;SDS011;57143;55.940;37.496;2023-08-30T08:38:06;8.33;;;2.30;;
69847;SDS011;57143;55.940;37.496;2023-08-30T08:40:36;6.60;;;2.63;;
69847;SDS011;57143;55.940;37.496;2023-08-30T08:43:04;6.38;;;2.33;;
69847;SDS011;57143;55.940;37.496;2023-08-30T08:45:32;5.70;;;2.08;;
69847;SDS011;57143;55.940;37.496;2023-08-30T08:48:02;5.75;;;2.10;;
69847;SDS011;57143;55.940;37.496;2023-08-30T08:50:30;6.50;;;2.03;;
69847;SDS011;57143;55.940;37.496;2023-08-30T08:52:58;13.70;;;6.20;;
69847;SDS011;57143;55.940;37.496;2023-08-30T08:55:27;8.32;;;2.60;;
69847;SDS011;57143;55.940;37.496;2023-08-30T08:57:57;6.07;;;2.10;;
69847;SDS011;57143;55.940;37.496;2023-08-30T09:00:25;6.65;;;1.88;;
69847;SDS011;57143;55.940;37.496;2023-08-30T09:02:53;6.07;;;1.73;;
69847;SDS011;57143;55.940;37.496;2023-08-30T09:05:21;5.78;;;2.00;;
69847;SDS011;57143;55.940;37.496;2023-08-30T09:07:48;5.13;;;1.80;;
69847;SDS011;57143;55.940;37.496;2023-08-30T09:10:19;5.22;;;1.83;;
69847;SDS011;57143;55.940;37.496;2023-08-30T09:12:48;5.53;;;2.03;;
69847;SDS011;57143;55.940;37.496;2023-08-30T09:15:15;6.00;;;1.80;;
69847;SDS011;57143;55.940;37.496;2023-08-30T09:17:43;5.82;;;1.80;;
69847;SDS011;57143;55.940;37.496;2023-08-30T09:20:12;5.95;;;1.90;;
69847;SDS011;57143;55.940;37.496;2023-08-30T09:22:40;7.15;;;2.13;;
69847;SDS011;57143;55.940;37.496;2023-08-30T09:25:21;5.78;;;2.30;;
69847;SDS011;57143;55.940;37.496;2023-08-30T09:27:51;5.43;;;1.93;;
69847;SDS011;57143;55.940;37.496;2023-08-30T09:30:24;5.82;;;2.10;;
69847;SDS011;57143;55.940;37.496;2023-08-30T09:32:51;5.45;;;2.00;;
69847;SDS011;57143;55.940;37.496;2023-08-30T09:35:19;5.43;;;2.10;;
69847;SDS011;57143;55.940;37.496;2023-08-30T09:37:46;5.50;;;2.15;;
69847;SDS011;57143;55.940;37.496;2023-08-30T09:40:18;6.10;;;2.00;;
69847;SDS011;57143;55.940;37.496;2023-08-30T09:42:46;6.32;;;2.15;;
69847;SDS011;57143;55.940;37.496;2023-08-30T09:45:21;6.55;;;1.80;;
69847;SDS011;57143;55.940;37.496;2023-08-30T09:47:49;5.07;;;1.80;;
69847;SDS011;57143;55.940;37.496;2023-08-30T09:50:17;5.68;;;1.77;;
69847;SDS011;57143;55.940;37.496;2023-08-30T09:52:46;5.07;;;1.90;;
69847;SDS011;57143;55.940;37.496;2023-08-30T09:55:14;5.60;;;2.20;;
69847;SDS011;57143;55.940;37.496;2023-08-30T09:57:44;5.20;;;1.88;;
69847;SDS011;57143;55.940;37.496;2023-08-30T10:00:13;4.72;;;1.48;;
69847;SDS011;57143;55.940;37.496;2023-08-30T10:02:42;5.18;;;1.80;;
69847;SDS011;57143;55.940;37.496;2023-08-30T10:05:10;4.93;;;1.57;;
69847;SDS011;57143;55.940;37.496;2023-08-30T10:07:38;5.30;;;1.92;;
69847;SDS011;57143;55.940;37.496;2023-08-30T10:10:06;5.55;;;1.80;;
69847;SDS011;57143;55.940;37.496;2023-08-30T10:12:33;5.38;;;1.70;;
69847;SDS011;57143;55.940;37.496;2023-08-30T10:15:01;4.47;;;1.50;;
69847;SDS011;57143;55.940;37.496;2023-08-30T10:17:31;6.17;;;1.80;;
69847;SDS011;57143;55.940;37.496;2023-08-30T10:20:03;5.78;;;2.10;;
69847;SDS011;57143;55.940;37.496;2023-08-30T10:22:31;5.30;;;2.45;;
69847;SDS011;57143;55.940;37.496;2023-08-30T10:25:01;5.70;;;1.70;;
69847;SDS011;57143;55.940;37.496;2023-08-30T10:27:31;4.90;;;1.77;;
69847;SDS011;57143;55.940;37.496;2023-08-30T10:30:01;5.10;;;2.00;;
69847;SDS011;57143;55.940;37.496;2023-08-30T10:32:31;8.50;;;3.60;;
69847;SDS011;57143;55.940;37.496;2023-08-30T10:35:01;5.25;;;2.10;;
69847;SDS011;57143;55.940;37.496;2023-08-30T10:37:30;5.78;;;1.80;;
69847;SDS011;57143;55.940;37.496;2023-08-30T10:39:59;5.72;;;1.70;;
69847;SDS011;57143;55.940;37.496;2023-08-30T10:42:30;5.27;;;1.63;;
69847;SDS011;57143;55.940;37.496;2023-08-30T10:44:58;5.20;;;1.60;;
69847;SDS011;57143;55.940;37.496;2023-08-30T10:47:31;5.30;;;2.03;;
69847;SDS011;57143;55.940;37.496;2023-08-30T10:50:04;7.65;;;2.58;;
69847;SDS011;57143;55.940;37.496;2023-08-30T10:52:32;5.40;;;2.00;;
69847;SDS011;57143;55.940;37.496;2023-08-30T10:55:06;5.87;;;2.27;;
69847;SDS011;57143;55.940;37.496;2023-08-30T10:57:34;5.68;;;1.90;;
69847;SDS011;57143;55.940;37.496;2023-08-30T11:00:05;6.28;;;1.83;;
69847;SDS011;57143;55.940;37.496;2023-08-30T11:02:35;5.88;;;2.03;;
69847;SDS011;57143;55.940;37.496;2023-08-30T11:05:08;5.57;;;2.08;;
69847;SDS011;57143;55.940;37.496;2023-08-30T11:07:35;6.03;;;2.00;;
69847;SDS011;57143;55.940;37.496;2023-08-30T11:10:04;5.82;;;1.90;;
69847;SDS011;57143;55.940;37.496;2023-08-30T11:12:32;6.05;;;2.47;;
69847;SDS011;57143;55.940;37.496;2023-08-30T11:15:07;5.60;;;2.20;;
69847;SDS011;57143;55.940;37.496;2023-08-30T11:17:36;6.53;;;2.10;;
69847;SDS011;57143;55.940;37.496;2023-08-30T11:20:08;7.30;;;2.57;;
69847;SDS011;57143;55.940;37.496;2023-08-30T11:22:40;7.25;;;2.17;;
69847;SDS011;57143;55.940;37.496;2023-08-30T11:25:09;5.80;;;2.00;;
69847;SDS011;57143;55.940;37.496;2023-08-30T11:27:38;6.90;;;2.53;;
69847;SDS011;57143;55.940;37.496;2023-08-30T11:30:07;7.47;;;2.40;;
69847;SDS011;57143;55.940;37.496;2023-08-30T11:32:37;5.57;;;2.30;;
69847;SDS011;57143;55.940;37.496;2023-08-30T11:35:06;6.03;;;2.13;;
69847;SDS011;57143;55.940;37.496;2023-08-30T11:37:35;6.07;;;2.33;;
69847;SDS011;57143;55.940;37.496;2023-08-30T11:40:03;7.13;;;2.80;;
69847;SDS011;57143;55.940;37.496;2023-08-30T11:42:33;6.90;;;2.28;;
69847;SDS011;57143;55.940;37.496;2023-08-30T11:45:00;7.63;;;2.27;;
69847;SDS011;57143;55.940;37.496;2023-08-30T11:47:32;6.07;;;2.55;;
69847;SDS011;57143;55.940;37.496;2023-08-30T11:50:01;7.10;;;2.88;;
69847;SDS011;57143;55.940;37.496;2023-08-30T11:52:34;6.78;;;2.83;;
69847;SDS011;57143;55.940;37.496;2023-08-30T11:55:02;6.50;;;2.50;;
69847;SDS011;57143;55.940;37.496;2023-08-30T11:57:32;9.03;;;3.83;;
69847;SDS011;57143;55.940;37.496;2023-08-30T12:00:06;5.85;;;2.47;;
69847;SDS011;57143;55.940;37.496;2023-08-30T12:02:35;7.63;;;2.97;;
69847;SDS011;57143;55.940;37.496;2023-08-30T12:05:02;6.50;;;2.95;;
69847;SDS011;57143;55.940;37.496;2023-08-30T12:07:30;7.57;;;2.97;;
69847;SDS011;57143;55.940;37.496;2023-08-30T12:10:05;9.90;;;4.53;;
69847;SDS011;57143;55.940;37.496;2023-08-30T12:12:33;6.38;;;2.80;;
69847;SDS011;57143;55.940;37.496;2023-08-30T12:15:04;5.50;;;2.30;;
69847;SDS011;57143;55.940;37.496;2023-08-30T12:17:34;6.18;;;2.60;;
69847;SDS011;57143;55.940;37.496;2023-08-30T12:20:02;6.22;;;2.50;;
69847;SDS011;57143;55.940;37.496;2023-08-30T12:22:37;6.50;;;2.40;;
69847;SDS011;57143;55.940;37.496;2023-08-30T12:25:16;6.53;;;2.53;;
69847;SDS011;57143;55.940;37.496;2023-08-30T12:27:45;6.15;;;2.83;;
69847;SDS011;57143;55.940;37.496;2023-08-30T12:30:13;7.05;;;2.35;;
69847;SDS011;57143;55.940;37.496;2023-08-30T12:32:42;7.00;;;2.70;;
69847;SDS011;57143;55.940;37.496;2023-08-30T12:35:10;6.53;;;2.80;;
69847;SDS011;57143;55.940;37.496;2023-08-30T12:37:37;7.05;;;3.05;;
69847;SDS011;57143;55.940;37.496;2023-08-30T12:40:05;7.60;;;3.00;;
69847;SDS011;57143;55.940;37.496;2023-08-30T12:42:35;6.55;;;3.00;;
69847;SDS011;57143;55.940;37.496;2023-08-30T12:45:02;7.13;;;3.03;;
69847;SDS011;57143;55.940;37.496;2023-08-30T12:47:31;6.93;;;2.80;;
69847;SDS011;57143;55.940;37.496;2023-08-30T12:49:58;7.50;;;2.42;;
69847;SDS011;57143;55.940;37.496;2023-08-30T12:52:25;7.43;;;3.20;;
69847;SDS011;57143;55.940;37.496;2023-08-30T12:54:53;6.72;;;2.88;;
69847;SDS011;57143;55.940;37.496;2023-08-30T12:57:20;7.80;;;2.83;;
69847;SDS011;57143;55.940;37.496;2023-08-30T12:59:49;5.93;;;2.50;;
69847;SDS011;57143;55.940;37.496;2023-08-30T13:02:16;6.63;;;3.00;;
69847;SDS011;57143;55.940;37.496;2023-08-30T13:04:44;6.78;;;3.03;;
69847;SDS011;57143;55.940;37.496;2023-08-30T13:07:11;5.63;;;2.70;;
69847;SDS011;57143;55.940;37.496;2023-08-30T13:09:38;8.18;;;3.70;;
69847;SDS011;57143;55.940;37.496;2023-08-30T13:12:06;7.80;;;3.50;;
69847;SDS011;57143;55.940;37.496;2023-08-30T13:14:33;6.40;;;2.97;;
69847;SDS011;57143;55.940;37.496;2023-08-30T13:17:04;5.72;;;2.13;;
69847;SDS011;57143;55.940;37.496;2023-08-30T13:19:34;5.53;;;2.20;;
69847;SDS011;57143;55.940;37.496;2023-08-30T13:22:01;5.55;;;2.30;;
69847;SDS011;57143;55.940;37.496;2023-08-30T13:24:29;7.30;;;2.47;;
69847;SDS011;57143;55.940;37.496;2023-08-30T13:26:58;5.82;;;2.30;;
69847;SDS011;57143;55.940;37.496;2023-08-30T13:29:25;7.97;;;2.65;;
69847;SDS011;57143;55.940;37.496;2023-08-30T13:31:52;8.85;;;2.80;;
69847;SDS011;57143;55.940;37.496;2023-08-30T13:34:21;6.65;;;2.60;;
69847;SDS011;57143;55.940;37.496;2023-08-30T13:36:48;6.43;;;2.40;;
69847;SDS011;57143;55.940;37.496;2023-08-30T13:39:15;6.68;;;2.50;;
69847;SDS011;57143;55.940;37.496;2023-08-30T13:41:45;6.30;;;2.30;;
69847;SDS011;57143;55.940;37.496;2023-08-30T13:44:12;5.82;;;1.90;;
69847;SDS011;57143;55.940;37.496;2023-08-30T13:46:40;5.70;;;2.00;;
69847;SDS011;57143;55.940;37.496;2023-08-30T13:49:08;5.00;;;1.93;;
69847;SDS011;57143;55.940;37.496;2023-08-30T13:51:37;6.30;;;2.08;;
69847;SDS011;57143;55.940;37.496;2023-08-30T13:54:04;4.95;;;2.03;;
69847;SDS011;57143;55.940;37.496;2023-08-30T13:56:32;7.45;;;2.28;;
69847;SDS011;57143;55.940;37.496;2023-08-30T13:58:59;9.30;;;1.95;;
69847;SDS011;57143;55.940;37.496;2023-08-30T14:01:27;5.70;;;1.83;;
69847;SDS011;57143;55.940;37.496;2023-08-30T14:03:54;6.50;;;2.00;;
69847;SDS011;57143;55.940;37.496;2023-08-30T14:06:23;5.43;;;2.00;;
69847;SDS011;57143;55.940;37.496;2023-08-30T14:08:52;5.10;;;2.00;;
69847;SDS011;57143;55.940;37.496;2023-08-30T14:11:19;5.50;;;1.83;;
69847;SDS011;57143;55.940;37.496;2023-08-30T14:13:47;5.27;;;2.10;;
69847;SDS011;57143;55.940;37.496;2023-08-30T14:16:14;6.60;;;2.15;;
69847;SDS011;57143;55.940;37.496;2023-08-30T14:18:42;8.38;;;2.50;;
69847;SDS011;57143;55.940;37.496;2023-08-30T14:21:10;5.22;;;2.05;;
69847;SDS011;57143;55.940;37.496;2023-08-30T14:23:38;6.03;;;2.00;;
69847;SDS011;57143;55.940;37.496;2023-08-30T14:26:07;5.33;;;1.97;;
69847;SDS011;57143;55.940;37.496;2023-08-30T14:28:36;4.95;;;1.70;;
69847;SDS011;57143;55.940;37.496;2023-08-30T14:31:03;6.28;;;2.10;;
69847;SDS011;57143;55.940;37.496;2023-08-30T14:33:33;7.30;;;2.20;;
69847;SDS011;57143;55.940;37.496;2023-08-30T14:36:00;5.53;;;2.20;;
69847;SDS011;57143;55.940;37.496;2023-08-30T14:38:28;8.47;;;2.30;;
69847;SDS011;57143;55.940;37.496;2023-08-30T14:40:55;8.48;;;2.22;;